Time;durP1;ratioP1;P1;durP2;ratioP2;P2;SDS_P1;SDS_P2;PMS_P1;PMS_P2;Temp;Humidity;BMP_temperature;BMP_pressure;BME280_temperature;BME280_humidity;BME280_pressure;Samples;Min_cycle;Max_cycle;Signal;HPM_P1;HPM_P2
2021/03/22 00:01:22;;;;;;;24.67;5.20;;;;;;;-144.99;91.74;52374.72;5074919;28;20205;-73
2021/03/22 00:03:48;;;;;;;15.70;5.80;;;;;;;-144.99;92.03;52395.09;5068852;28;20200;-73
2021/03/22 00:06:14;;;;;;;24.43;4.00;;;;;;;-144.99;91.95;52380.84;5074498;28;20619;-73
2021/03/22 00:08:40;;;;;;;13.57;4.83;;;;;;;-144.99;92.12;52374.72;5074531;28;20288;-71
2021/03/22 00:11:07;;;;;;;12.53;4.40;;;;;;;-144.99;92.18;52362.50;5075464;28;20197;-72
2021/03/22 00:13:33;;;;;;;12.40;4.87;;;;;;;-144.99;92.06;52395.09;5070156;28;20216;-72
2021/03/22 00:16:01;;;;;;;21.20;5.47;;;;;;;-144.99;92.23;52388.97;5067806;28;20623;-71
2021/03/22 00:18:32;;;;;;;19.50;5.37;;;;;;;-144.99;92.27;52395.09;5065491;28;20631;-71
2021/03/22 00:20:58;;;;;;;15.63;3.97;;;;;;;-144.99;92.36;52407.31;5066713;28;20642;-71
2021/03/22 00:23:25;;;;;;;17.87;4.97;;;;;;;-144.99;92.44;52403.25;4721745;28;9999796;-71
2021/03/22 00:25:51;;;;;;;13.87;4.57;;;;;;;-144.99;92.45;52358.41;5069225;28;20764;-72
2021/03/22 00:28:19;;;;;;;20.57;4.13;;;;;;;-144.99;92.43;52358.41;5069100;28;20623;-73
2021/03/22 00:30:46;;;;;;;14.43;4.10;;;;;;;-144.99;92.51;52399.19;5072160;28;20745;-73
2021/03/22 00:33:14;;;;;;;17.20;4.70;;;;;;;-144.99;92.56;52391.03;5071054;28;20629;-73
2021/03/22 00:35:42;;;;;;;19.63;4.43;;;;;;;-144.99;92.67;52407.31;5070810;28;20873;-71
2021/03/22 00:38:09;;;;;;;8.73;3.17;;;;;;;-144.99;92.71;52370.63;5072029;28;20625;-71
2021/03/22 00:40:38;;;;;;;20.63;3.93;;;;;;;-144.99;92.73;52401.22;5071308;28;20644;-72
2021/03/22 00:43:04;;;;;;;21.17;4.57;;;;;;;-144.99;92.70;52409.38;5072011;28;21168;-71
2021/03/22 00:45:30;;;;;;;16.47;5.77;;;;;;;-144.99;92.91;52380.84;5071015;28;20650;-70
2021/03/22 00:47:56;;;;;;;18.20;4.57;;;;;;;-144.99;92.75;52378.78;5072170;28;20615;-72
2021/03/22 00:50:30;;;;;;;13.63;4.10;;;;;;;-144.99;92.98;52407.31;5070946;28;20881;-71
2021/03/22 00:52:57;;;;;;;14.63;5.03;;;;;;;-144.99;93.28;52391.03;5071740;28;20234;-72
2021/03/22 00:55:24;;;;;;;16.83;3.97;;;;;;;-144.99;93.41;52413.44;5070976;28;20614;-72
2021/03/22 00:57:50;;;;;;;11.60;5.27;;;;;;;-144.99;93.51;52366.56;5072219;28;20607;-71
2021/03/22 01:00:23;;;;;;;18.70;6.67;;;;;;;-144.99;93.54;52448.09;5104065;22;21038;-72
2021/03/22 01:02:49;;;;;;;19.90;3.93;;;;;;;-144.99;93.85;52386.94;5088053;28;20617;-72
2021/03/22 01:05:16;;;;;;;22.37;6.43;;;;;;;-144.99;93.96;52368.59;5080728;28;20619;-73
2021/03/22 01:07:43;;;;;;;20.93;5.93;;;;;;;-144.99;93.97;52354.34;5086482;28;20629;-73
2021/03/22 01:10:29;;;;;;;24.20;8.73;;;;;;;-144.99;94.38;52386.94;5087946;28;20709;-73
2021/03/22 01:12:56;;;;;;;18.03;7.87;;;;;;;-144.99;94.88;52352.28;5067086;28;20623;-73
2021/03/22 01:15:22;;;;;;;19.43;4.60;;;;;;;-144.99;94.93;52378.78;5075321;28;20634;-72
2021/03/22 01:17:48;;;;;;;18.77;6.37;;;;;;;-144.99;95.28;52403.25;5075877;28;20677;-73
2021/03/22 01:20:19;;;;;;;22.33;5.77;;;;;;;-144.99;95.25;52360.44;5075754;28;20642;-71
2021/03/22 01:22:45;;;;;;;26.63;10.00;;;;;;;-144.99;95.75;52382.88;5070783;28;20608;-73
2021/03/22 01:25:12;;;;;;;15.03;4.37;;;;;;;-144.99;96.07;52370.63;5076225;28;21261;-73
2021/03/22 01:27:39;;;;;;;20.67;4.00;;;;;;;-144.99;95.96;52386.94;5077483;28;20200;-72
2021/03/22 01:30:12;;;;;;;22.63;5.60;;;;;;;-144.99;96.26;52358.41;5077092;28;20657;-72
2021/03/22 01:32:39;;;;;;;17.23;6.07;;;;;;;-144.99;96.47;52415.47;5077283;28;20622;-73
2021/03/22 01:35:06;;;;;;;13.90;3.73;;;;;;;-144.99;96.51;52419.56;5075201;28;20619;-72
2021/03/22 01:37:32;;;;;;;15.93;3.87;;;;;;;-144.99;96.54;52405.28;5075425;28;20630;-72
2021/03/22 01:39:58;;;;;;;12.93;5.40;;;;;;;-144.99;96.67;52382.88;5071910;28;20654;-73
2021/03/22 01:42:37;;;;;;;22.57;4.80;;;;;;;-144.99;96.76;52376.75;5077376;28;20622;-74
2021/03/22 01:45:07;;;;;;;25.60;3.73;;;;;;;-144.99;96.56;52399.19;5064419;28;21001;-73
2021/03/22 01:47:34;;;;;;;17.73;3.67;;;;;;;-144.99;96.67;52427.72;5078273;28;20622;-75
2021/03/22 01:50:05;;;;;;;13.23;3.17;;;;;;;-144.99;96.75;52386.94;5069930;28;20694;-74
2021/03/22 01:52:33;;;;;;;18.60;4.80;;;;;;;-144.99;96.66;52395.09;5078265;28;20622;-74
2021/03/22 01:54:59;;;;;;;22.97;4.53;;;;;;;-144.99;96.66;52386.94;5072840;28;20673;-75
2021/03/22 01:57:30;;;;;;;27.30;6.73;;;;;;;-144.99;96.64;52354.34;5071216;28;20608;-75
2021/03/22 02:00:21;;;;;;;12.07;3.20;;;;;;;-144.99;96.82;52380.84;5070631;28;20796;-74
2021/03/22 02:02:50;;;;;;;29.20;7.70;;;;;;;-144.99;96.71;52378.78;5075506;28;20615;-74
2021/03/22 02:05:19;;;;;;;19.80;5.23;;;;;;;-144.99;96.70;52386.94;5070332;28;20659;-74
2021/03/22 02:07:50;;;;;;;20.97;7.03;;;;;;;-144.99;96.80;52391.03;5064464;28;21172;-76
2021/03/22 02:10:16;;;;;;;25.03;3.73;;;;;;;-144.99;96.90;52338.03;5079500;28;20726;-73
2021/03/22 02:12:43;;;;;;;10.90;4.23;;;;;;;-144.99;96.81;52403.25;5070061;28;21172;-76
2021/03/22 02:15:10;;;;;;;16.33;4.23;;;;;;;-144.99;96.91;52350.25;5076601;28;20209;-76
2021/03/22 02:17:44;;;;;;;18.07;4.23;;;;;;;-144.99;96.79;52386.94;5074952;28;20615;-75
2021/03/22 02:20:56;;;;;;;27.63;5.13;;;;;;;-144.99;96.87;52346.19;5076109;28;21043;-73
2021/03/22 02:24:09;;;;;;;15.00;4.30;;;;;;;-144.99;97.07;52393.06;5066118;28;20623;-74
2021/03/22 02:26:57;;;;;;;21.97;6.03;;;;;;;-144.99;97.09;52362.50;5072917;28;20621;-74
2021/03/22 02:29:37;;;;;;;15.97;4.27;;;;;;;-144.99;97.21;52403.25;5075599;28;20660;-74
2021/03/22 02:32:20;;;;;;;24.67;4.07;;;;;;;-144.99;97.06;52350.25;5064624;28;21172;-73
2021/03/22 02:34:49;;;;;;;21.20;4.70;;;;;;;-144.99;97.40;52395.09;5073166;28;20681;-73
2021/03/22 02:37:37;;;;;;;15.97;5.10;;;;;;;-144.99;97.34;52358.41;5073990;28;20728;-74
2021/03/22 02:40:15;;;;;;;27.33;6.57;;;;;;;-144.99;97.40;52346.19;5061962;28;21001;-74
2021/03/22 02:42:45;;;;;;;22.07;5.17;;;;;;;-144.99;97.57;52364.53;5074214;28;20668;-71
2021/03/22 02:45:19;;;;;;;20.27;3.43;;;;;;;-144.99;97.43;52431.78;5072719;28;20626;-74
2021/03/22 02:47:45;;;;;;;24.57;5.23;;;;;;;-144.99;97.81;52403.25;5075460;28;20619;-73
2021/03/22 02:50:15;;;;;;;19.80;5.20;;;;;;;-144.99;98.01;52358.41;5072910;28;21131;-73
2021/03/22 02:53:17;;;;;;;14.77;4.90;;;;;;;-144.99;98.02;52403.25;5071288;28;20209;-72
2021/03/22 02:55:56;;;;;;;18.40;4.83;;;;;;;-144.99;98.18;52397.13;5068426;28;20625;-72
2021/03/22 02:58:28;;;;;;;20.27;4.93;;;;;;;-144.99;98.46;52338.03;5070571;28;21179;-72
2021/03/22 03:01:00;;;;;;;23.53;6.50;;;;;;;-144.99;98.27;52378.78;5064983;28;20663;-73
2021/03/22 03:03:27;;;;;;;14.10;3.77;;;;;;;-144.99;98.53;52378.78;5065603;28;20699;-74
2021/03/22 03:05:55;;;;;;;19.83;4.57;;;;;;;-144.99;98.66;52382.88;5065700;28;20631;-74
2021/03/22 03:08:24;;;;;;;13.43;5.13;;;;;;;-144.99;98.67;52382.88;5070200;28;21172;-74
2021/03/22 03:10:50;;;;;;;22.87;5.63;;;;;;;-144.99;98.91;52358.41;5071623;28;20666;-74
2021/03/22 03:13:16;;;;;;;16.97;5.00;;;;;;;-144.99;98.92;52362.50;5063889;28;20628;-74
2021/03/22 03:15:42;;;;;;;17.00;4.47;;;;;;;-144.99;99.06;52354.34;5067422;28;20685;-74
2021/03/22 03:18:08;;;;;;;24.17;6.83;;;;;;;-144.99;99.15;52354.34;5077244;28;20279;-73
2021/03/22 03:20:34;;;;;;;20.77;4.50;;;;;;;-144.99;99.31;52391.03;5071062;28;20217;-74
2021/03/22 03:23:01;;;;;;;13.90;3.93;;;;;;;-144.99;99.17;52378.78;5073812;28;20615;-73
2021/03/22 03:25:30;;;;;;;19.27;4.13;;;;;;;-144.99;99.24;52382.88;5068699;28;20619;-74
2021/03/22 03:27:56;;;;;;;14.07;4.73;;;;;;;-144.99;99.38;52374.72;5075472;28;20992;-72
2021/03/22 03:30:25;;;;;;;17.47;4.27;;;;;;;-144.99;99.60;52407.31;5074776;28;21044;-73
2021/03/22 03:32:51;;;;;;;24.50;6.67;;;;;;;-144.99;99.61;52370.63;5065711;28;20988;-73
2021/03/22 03:35:19;;;;;;;11.70;3.43;;;;;;;-144.99;99.60;52395.09;5073666;28;20612;-73
2021/03/22 03:37:45;;;;;;;12.77;3.50;;;;;;;-144.99;99.53;52346.19;5071429;28;20634;-73
2021/03/22 03:40:16;;;;;;;22.57;6.73;;;;;;;-144.99;99.62;52388.97;5069233;28;21022;-74
2021/03/22 03:42:42;;;;;;;16.60;4.97;;;;;;;-144.99;99.95;52397.13;5074848;28;20211;-74
2021/03/22 03:45:10;;;;;;;20.27;5.07;;;;;;;-144.99;99.95;52372.69;5070617;28;20615;-74
2021/03/22 03:47:37;;;;;;;23.73;6.33;;;;;;;-144.99;99.97;52407.31;5076078;28;20622;-73
2021/03/22 03:50:05;;;;;;;13.03;6.23;;;;;;;-144.99;99.95;52376.75;5070098;28;20667;-73
2021/03/22 03:52:31;;;;;;;33.27;6.83;;;;;;;-144.99;100.00;52378.78;5070968;28;20641;-73
2021/03/22 03:54:56;;;;;;;22.23;4.90;;;;;;;-144.99;100.00;52370.63;5071828;28;20734;-74
2021/03/22 03:57:23;;;;;;;17.17;4.57;;;;;;;-144.99;100.00;52391.03;5069269;28;20622;-73
2021/03/22 03:59:49;;;;;;;18.17;4.43;;;;;;;-144.99;100.00;52378.78;5068558;28;20623;-72
2021/03/22 04:02:15;;;;;;;18.17;6.17;;;;;;;-144.99;100.00;52354.34;5077713;28;20626;-73
2021/03/22 04:04:41;;;;;;;12.50;4.23;;;;;;;-144.99;100.00;52403.25;5067217;28;20219;-72
2021/03/22 04:07:07;;;;;;;15.93;4.83;;;;;;;-144.99;100.00;52370.63;5071476;28;20192;-73
2021/03/22 04:09:33;;;;;;;17.57;4.33;;;;;;;-144.99;100.00;52386.94;5077154;28;20217;-72
2021/03/22 04:11:59;;;;;;;23.67;5.27;;;;;;;-144.99;100.00;52362.50;5079662;28;20650;-73
2021/03/22 04:14:28;;;;;;;21.67;5.73;;;;;;;-144.99;100.00;52393.06;5075805;28;20229;-74
2021/03/22 04:16:54;;;;;;;22.30;5.00;;;;;;;-144.99;100.00;52362.50;5067864;28;20204;-74
2021/03/22 04:19:21;;;;;;;17.70;5.27;;;;;;;-144.99;100.00;52368.59;5079176;28;20618;-74
2021/03/22 04:21:48;;;;;;;13.07;4.27;;;;;;;-144.99;100.00;52382.88;5077756;28;20649;-75
2021/03/22 04:24:15;;;;;;;15.90;5.90;;;;;;;-144.99;100.00;52366.56;5074287;28;20619;-74
2021/03/22 04:26:42;;;;;;;30.13;6.07;;;;;;;-144.99;100.00;52415.47;5079036;28;20629;-73
2021/03/22 04:29:08;;;;;;;19.33;6.07;;;;;;;-144.99;100.00;52407.31;5076978;28;21184;-72
2021/03/22 04:31:35;;;;;;;23.10;5.47;;;;;;;-144.99;100.00;52386.94;5075287;28;20650;-74
2021/03/22 04:34:02;;;;;;;22.07;5.00;;;;;;;-144.99;100.00;52431.78;5073731;28;20636;-75
2021/03/22 04:36:30;;;;;;;19.40;5.60;;;;;;;-144.99;100.00;52415.47;5075374;28;20631;-73
2021/03/22 04:38:57;;;;;;;20.03;5.40;;;;;;;-144.99;100.00;52384.91;5079971;28;20622;-75
2021/03/22 04:41:24;;;;;;;10.23;4.53;;;;;;;-144.99;100.00;52386.94;5071995;28;20631;-75
2021/03/22 04:43:50;;;;;;;17.13;3.53;;;;;;;-144.99;100.00;52358.41;5069534;28;20667;-75
2021/03/22 04:46:17;;;;;;;21.40;4.80;;;;;;;-144.99;100.00;52354.34;5075773;28;20708;-73
2021/03/22 04:48:43;;;;;;;19.93;5.23;;;;;;;-144.99;100.00;52370.63;5065697;28;20622;-72
2021/03/22 04:51:09;;;;;;;24.10;8.20;;;;;;;-144.99;100.00;52386.94;5074423;28;20729;-72
2021/03/22 04:53:35;;;;;;;12.60;5.43;;;;;;;-144.99;100.00;52321.72;5073658;28;20621;-72
2021/03/22 04:56:07;;;;;;;15.80;5.13;;;;;;;-144.99;100.00;52401.22;5073616;28;20251;-72
2021/03/22 04:58:33;;;;;;;17.93;5.10;;;;;;;-144.99;100.00;52374.72;5072493;28;20622;-71
2021/03/22 05:00:59;;;;;;;14.70;5.33;;;;;;;-144.99;100.00;52340.06;5072831;28;20651;-71
2021/03/22 05:03:25;;;;;;;12.17;3.83;;;;;;;-144.99;100.00;52331.91;5073245;28;20596;-71
2021/03/22 05:05:52;;;;;;;12.53;4.57;;;;;;;-144.99;100.00;52427.72;5070391;28;20201;-71
2021/03/22 05:08:20;;;;;;;13.97;5.57;;;;;;;-144.99;100.00;52397.13;5071525;28;20626;-71
2021/03/22 05:10:48;;;;;;;15.07;4.43;;;;;;;-144.99;100.00;52382.88;5075635;28;20666;-71
2021/03/22 05:13:16;;;;;;;21.93;8.20;;;;;;;-144.99;100.00;52403.25;5074129;28;20741;-70
2021/03/22 05:15:43;;;;;;;13.07;4.90;;;;;;;-144.99;100.00;52374.72;5070700;28;20622;-73
2021/03/22 05:18:12;;;;;;;15.03;3.73;;;;;;;-144.99;100.00;52370.63;5078732;28;20594;-71
2021/03/22 05:20:40;;;;;;;16.43;4.83;;;;;;;-144.99;100.00;52295.22;5072337;28;20661;-73
2021/03/22 05:23:09;;;;;;;18.50;4.70;;;;;;;-144.99;100.00;52358.41;5080361;28;20625;-73
2021/03/22 05:25:35;;;;;;;20.23;4.60;;;;;;;-144.99;100.00;52338.03;5073107;28;20615;-73
2021/03/22 05:28:04;;;;;;;12.50;4.83;;;;;;;-144.99;100.00;52386.94;5076235;28;20631;-73
2021/03/22 05:30:30;;;;;;;13.70;5.00;;;;;;;-144.99;100.00;52370.63;5076317;28;20681;-74
2021/03/22 05:32:57;;;;;;;17.63;4.83;;;;;;;-144.99;100.00;52338.03;5067945;28;21207;-75
2021/03/22 05:35:24;;;;;;;17.97;4.67;;;;;;;-144.99;100.00;52391.03;5078240;28;21164;-75
2021/03/22 05:37:50;;;;;;;11.57;4.97;;;;;;;-144.99;100.00;52354.34;5071889;28;20623;-73
2021/03/22 05:40:24;;;;;;;12.47;4.73;;;;;;;-144.99;100.00;52358.41;5072630;28;20992;-73
2021/03/22 05:43:05;;;;;;;17.30;4.23;;;;;;;-144.99;100.00;52350.25;5072524;28;20719;-74
2021/03/22 05:45:54;;;;;;;16.47;5.17;;;;;;;-144.99;100.00;52407.31;5077766;28;21171;-73
2021/03/22 05:48:42;;;;;;;24.60;5.70;;;;;;;-144.99;100.00;52350.25;5066344;28;20662;-74
2021/03/22 05:51:28;;;;;;;28.50;5.07;;;;;;;-144.99;100.00;52321.72;5072959;28;20689;-73
2021/03/22 05:54:02;;;;;;;12.50;5.07;;;;;;;-144.99;100.00;52342.09;5074558;28;20608;-74
2021/03/22 05:56:35;;;;;;;26.60;8.90;;;;;;;-144.99;100.00;52317.66;5072379;28;20626;-73
2021/03/22 05:59:18;;;;;;;22.03;5.07;;;;;;;-144.99;100.00;52376.75;5069513;28;20623;-74
2021/03/22 06:01:47;;;;;;;10.77;6.10;;;;;;;-144.99;100.00;52346.19;5067388;28;20680;-74
2021/03/22 06:04:22;;;;;;;14.57;5.80;;;;;;;-144.99;100.00;52370.63;5066553;28;21156;-74
2021/03/22 06:06:50;;;;;;;11.70;6.07;;;;;;;-144.99;100.00;52346.19;5067001;28;20785;-75
2021/03/22 06:09:26;;;;;;;21.97;6.00;;;;;;;-144.99;100.00;52366.56;5073881;28;20654;-75
2021/03/22 06:11:58;;;;;;;22.93;9.03;;;;;;;-144.99;100.00;52358.41;5071504;28;20992;-74
2021/03/22 06:14:39;;;;;;;19.40;5.43;;;;;;;-144.99;100.00;52364.53;5072042;28;20679;-74
2021/03/22 06:17:11;;;;;;;12.17;4.97;;;;;;;-144.99;100.00;52354.34;5069773;28;20630;-73
2021/03/22 06:19:42;;;;;;;14.63;4.67;;;;;;;-144.99;100.00;52391.03;5076706;28;20606;-73
2021/03/22 06:22:19;;;;;;;14.13;5.83;;;;;;;-144.99;100.00;52348.22;5074312;28;20702;-73
2021/03/22 06:24:45;;;;;;;12.77;6.97;;;;;;;-144.99;100.00;52364.53;5077680;28;21129;-72
2021/03/22 06:27:12;;;;;;;17.70;5.30;;;;;;;-144.99;100.00;52338.03;5075316;28;20981;-73
2021/03/22 06:29:39;;;;;;;13.60;5.87;;;;;;;-144.99;100.00;52329.88;5074603;28;20653;-73
2021/03/22 06:32:11;;;;;;;15.13;6.03;;;;;;;-144.99;100.00;52354.34;5071685;28;20633;-74
2021/03/22 06:34:42;;;;;;;19.20;6.27;;;;;;;-144.99;100.00;52364.53;5069661;28;20961;-76
2021/03/22 06:37:19;;;;;;;19.17;7.27;;;;;;;-144.99;100.00;52366.56;5071317;28;20627;-74
2021/03/22 06:39:46;;;;;;;22.93;6.40;;;;;;;-144.99;99.93;52333.94;5073366;28;20626;-73
2021/03/22 06:42:19;;;;;;;15.87;5.13;;;;;;;-144.99;99.60;52370.63;5071475;28;20626;-73
2021/03/22 06:44:45;;;;;;;15.20;4.87;;;;;;;-144.99;99.63;52370.63;5074796;28;20630;-72
2021/03/22 06:47:23;;;;;;;30.93;6.73;;;;;;;-144.99;99.55;52346.19;5076489;28;20614;-71
2021/03/22 06:49:52;;;;;;;18.03;5.77;;;;;;;-144.99;99.25;52382.88;5066826;28;20650;-74
2021/03/22 06:52:20;;;;;;;17.10;6.23;;;;;;;-144.99;99.20;52354.34;5070909;28;20612;-72
2021/03/22 06:54:49;;;;;;;16.27;5.93;;;;;;;-144.99;98.95;52350.25;5069896;28;20603;-73
2021/03/22 06:57:17;;;;;;;13.87;4.97;;;;;;;-144.99;98.42;52342.09;5072225;28;20650;-73
2021/03/22 07:00:05;;;;;;;12.13;5.87;;;;;;;-144.99;98.35;52372.69;5068832;28;20684;-73
2021/03/22 07:02:40;;;;;;;14.77;5.00;;;;;;;-144.99;98.35;52358.41;5072492;28;20684;-73
2021/03/22 07:05:18;;;;;;;19.83;5.83;;;;;;;-144.99;98.16;52356.38;5067872;28;20602;-73
2021/03/22 07:07:52;;;;;;;14.77;5.33;;;;;;;-144.99;97.74;52352.28;5090623;22;20691;-70
2021/03/22 07:10:18;;;;;;;14.27;5.90;;;;;;;-144.99;97.36;52354.34;5065438;28;20655;-68
2021/03/22 07:12:45;;;;;;;20.40;7.13;;;;;;;-144.99;96.56;52378.78;5071104;28;20615;-70
2021/03/22 07:15:25;;;;;;;11.20;5.23;;;;;;;-144.99;96.05;52350.25;5065590;28;20672;-70
2021/03/22 07:18:22;;;;;;;22.60;7.33;;;;;;;-144.99;95.04;52370.63;5065669;28;20994;-71
2021/03/22 07:21:04;;;;;;;13.80;5.27;;;;;;;-144.99;95.27;52366.56;5063457;28;21176;-71
2021/03/22 07:24:00;;;;;;;21.80;6.07;;;;;;;-144.99;94.84;52329.88;5066332;28;20658;-73
2021/03/22 07:26:37;;;;;;;19.73;5.80;;;;;;;-144.99;94.60;52346.19;5068870;28;20618;-73
2021/03/22 07:29:21;;;;;;;18.13;6.60;;;;;;;-144.99;94.17;52309.50;5069472;28;20626;-74
2021/03/22 07:31:59;;;;;;;27.00;5.60;;;;;;;-144.99;93.28;52366.56;5068435;28;20626;-71
2021/03/22 07:34:52;;;;;;;10.80;5.10;;;;;;;-144.99;93.05;52356.38;5070981;28;20629;-72
2021/03/22 07:37:31;;;;;;;23.93;6.30;;;;;;;-144.99;92.81;52386.94;5073902;28;20657;-70
2021/03/22 07:39:59;;;;;;;16.93;8.30;;;;;;;-144.99;92.42;52321.72;5073378;28;20611;-70
2021/03/22 07:43:01;;;;;;;11.17;6.10;;;;;;;-144.99;92.23;52325.81;5080155;28;20623;-71
2021/03/22 07:45:53;;;;;;;15.07;5.70;;;;;;;-144.99;92.16;52321.72;5040225;28;20693;-69
2021/03/22 07:48:50;;;;;;;23.47;8.03;;;;;;;-144.99;92.00;52313.56;5066329;28;20654;-69
2021/03/22 07:51:31;;;;;;;14.20;6.57;;;;;;;-144.99;90.87;52336.00;5072101;28;20623;-71
2021/03/22 07:54:08;;;;;;;12.07;5.33;;;;;;;-144.99;91.04;52354.34;5066764;28;20626;-71
2021/03/22 07:56:44;;;;;;;25.63;6.20;;;;;;;-144.99;90.48;52338.03;5072837;28;20671;-71
2021/03/22 07:59:21;;;;;;;14.10;5.30;;;;;;;-144.99;90.60;52356.38;5070988;28;20622;-71
2021/03/22 08:02:00;;;;;;;13.37;5.90;;;;;;;-144.99;90.49;52344.16;5072194;28;20630;-72
2021/03/22 08:04:52;;;;;;;19.37;6.27;;;;;;;-144.99;90.07;52333.94;5072513;28;20622;-71
2021/03/22 08:07:43;;;;;;;18.33;7.30;;;;;;;-144.99;91.94;52317.66;5054131;28;20761;-70
2021/03/22 08:10:27;;;;;;;16.77;6.53;;;;;;;-144.99;90.13;52342.09;5070757;28;20996;-71
2021/03/22 08:13:02;;;;;;;19.70;6.27;;;;;;;-144.99;90.51;52354.34;5067469;28;20619;-69
2021/03/22 08:15:35;;;;;;;17.63;7.23;;;;;;;-144.99;91.21;52313.56;5071967;28;20630;-70
2021/03/22 08:18:14;;;;;;;12.13;5.83;;;;;;;-144.99;91.05;52301.34;5072356;28;20227;-69
2021/03/22 08:20:53;;;;;;;17.33;5.00;;;;;;;-144.99;89.38;52289.13;5072171;28;20645;-71
2021/03/22 08:23:27;;;;;;;12.23;5.33;;;;;;;-144.99;88.48;52366.56;5068629;28;21187;-68
2021/03/22 08:25:55;;;;;;;16.37;5.53;;;;;;;-144.99;88.37;52311.53;5066986;28;20603;-70
2021/03/22 08:28:30;;;;;;;16.13;5.23;;;;;;;-144.99;87.63;52333.94;5071885;28;21250;-70
2021/03/22 08:31:04;;;;;;;14.03;4.23;;;;;;;-144.99;87.12;52301.34;5069236;28;20212;-71
2021/03/22 08:33:38;;;;;;;14.90;4.50;;;;;;;-144.99;84.44;52317.66;5072976;28;20200;-71
2021/03/22 08:36:18;;;;;;;13.67;4.90;;;;;;;-144.99;83.85;52305.41;5072493;28;20207;-69
2021/03/22 08:38:48;;;;;;;11.50;5.77;;;;;;;-144.99;82.43;52303.38;5072488;28;20228;-72
2021/03/22 08:41:29;;;;;;;11.40;4.17;;;;;;;-144.99;80.66;52321.72;5073079;28;20205;-72
2021/03/22 08:44:01;;;;;;;19.20;4.93;;;;;;;-144.99;78.77;52293.19;5070779;28;20200;-71
2021/03/22 08:46:34;;;;;;;19.90;7.70;;;;;;;-144.99;77.50;52309.50;5070908;28;20250;-72
2021/03/22 08:49:13;;;;;;;5.33;3.30;;;;;;;-144.99;76.40;52289.13;5064927;28;20205;-71
2021/03/22 08:51:39;;;;;;;18.07;6.30;;;;;;;-144.99;75.35;52248.34;5073176;28;20245;-72
2021/03/22 08:54:22;;;;;;;16.07;5.93;;;;;;;-144.99;73.30;52317.66;5070959;28;20243;-72
2021/03/22 08:57:00;;;;;;;9.93;4.47;;;;;;;-144.99;71.47;52280.97;5072200;28;20200;-72
2021/03/22 08:59:26;;;;;;;11.03;3.90;;;;;;;-144.99;71.46;52268.72;5066797;28;20188;-71
2021/03/22 09:02:15;;;;;;;13.30;4.60;;;;;;;-144.99;70.34;52289.13;5072455;28;20689;-71
2021/03/22 09:04:43;;;;;;;9.00;3.97;;;;;;;-144.99;69.93;52276.88;5070335;28;20486;-71
2021/03/22 09:07:25;;;;;;;16.50;5.00;;;;;;;-144.99;67.07;52268.72;5067569;28;20278;-71
2021/03/22 09:09:53;;;;;;;11.00;4.50;;;;;;;-144.99;65.89;52303.38;5064036;28;20217;-72
2021/03/22 09:12:43;;;;;;;8.63;4.27;;;;;;;-144.99;64.29;52283.00;5065851;28;20215;-73
2021/03/22 09:15:14;;;;;;;8.93;3.73;;;;;;;-144.99;62.51;52280.97;5068505;28;20266;-73
2021/03/22 09:18:09;;;;;;;8.37;2.87;;;;;;;-144.99;59.40;52248.34;5071214;28;20648;-73
2021/03/22 09:21:08;;;;;;;8.07;3.07;;;;;;;-144.99;57.67;52248.34;5070795;28;20193;-73
2021/03/22 09:23:43;;;;;;;12.80;3.07;;;;;;;-144.99;57.80;52215.75;5069337;28;20670;-73
2021/03/22 09:26:11;;;;;;;9.13;5.93;;;;;;;-144.99;56.72;52232.03;5069998;28;20204;-73
2021/03/22 09:28:50;;;;;;;9.17;4.03;;;;;;;-144.99;57.78;52293.19;5070746;28;20294;-73
2021/03/22 09:31:36;;;;;;;12.23;3.70;;;;;;;-144.99;59.51;52268.72;5069606;28;20212;-73
2021/03/22 09:34:05;;;;;;;13.50;4.17;;;;;;;-144.99;60.75;52325.81;5067719;28;20213;-73
2021/03/22 09:36:37;;;;;;;11.00;3.17;;;;;;;-144.99;60.81;52301.34;5070319;28;20255;-72
2021/03/22 09:39:26;;;;;;;9.00;3.90;;;;;;;-144.99;61.47;52254.47;5071134;28;20280;-76
2021/03/22 09:42:05;;;;;;;7.40;2.87;;;;;;;-144.99;60.44;52248.34;5070447;28;20659;-72
2021/03/22 09:44:34;;;;;;;6.53;4.90;;;;;;;-144.99;57.71;52276.88;5071075;28;20329;-73
2021/03/22 09:47:16;;;;;;;6.87;2.97;;;;;;;-144.99;55.99;52227.97;5070815;28;20217;-72
2021/03/22 09:50:11;;;;;;;4.93;2.27;;;;;;;-144.99;54.47;52234.09;5070635;28;20232;-72
2021/03/22 09:52:39;;;;;;;4.63;2.50;;;;;;;-144.99;53.09;52242.22;5069266;28;20205;-72
2021/03/22 09:55:42;;;;;;;5.80;3.80;;;;;;;-144.99;52.46;52223.88;5070232;28;20224;-72
2021/03/22 09:58:26;;;;;;;8.67;3.67;;;;;;;-144.99;51.93;52278.91;5066805;28;20216;-76
2021/03/22 10:00:57;;;;;;;9.87;2.80;;;;;;;-144.99;50.98;52276.88;5069875;28;20204;-77
2021/03/22 10:04:19;;;;;;;7.90;2.67;;;;;;;-144.99;50.20;52244.28;5072233;28;20297;-77
2021/03/22 10:06:55;;;;;;;5.23;2.13;;;;;;;-144.99;49.28;52252.44;5069549;28;20205;-75
2021/03/22 10:09:26;;;;;;;4.83;2.17;;;;;;;-144.99;48.09;52236.13;5075912;28;20479;-76
2021/03/22 10:11:56;;;;;;;5.80;3.20;;;;;;;-144.99;47.79;52240.19;5074284;28;20205;-74
2021/03/22 10:14:30;;;;;;;7.03;2.83;;;;;;;-144.99;46.48;52211.66;5069327;28;20201;-71
2021/03/22 10:16:58;;;;;;;7.03;2.67;;;;;;;-144.99;46.45;52227.97;5066796;28;20215;-75
2021/03/22 10:19:26;;;;;;;3.03;2.03;;;;;;;-144.99;47.86;52287.06;5070648;28;20205;-76
2021/03/22 10:21:54;;;;;;;4.27;2.23;;;;;;;-144.99;48.06;52211.66;5074363;28;20205;-73
2021/03/22 10:24:31;;;;;;;4.90;2.23;;;;;;;-144.99;46.25;52170.91;5067028;28;20270;-75
2021/03/22 10:26:59;;;;;;;5.00;2.27;;;;;;;-144.99;44.82;52158.66;5068990;28;20225;-78
2021/03/22 10:29:29;;;;;;;9.47;2.70;;;;;;;-144.99;43.64;52105.69;5068558;28;20201;-74
2021/03/22 10:32:02;;;;;;;8.97;3.23;;;;;;;-144.99;41.65;52225.94;5070317;28;20562;-75
2021/03/22 10:34:32;;;;;;;9.57;2.63;;;;;;;-144.99;41.38;52252.44;5066915;28;20374;-75
2021/03/22 10:37:05;;;;;;;5.80;2.40;;;;;;;-144.99;42.27;52162.75;5070730;28;20218;-76
2021/03/22 10:39:34;;;;;;;5.10;2.60;;;;;;;-144.99;41.43;52174.97;5069632;28;20282;-74
2021/03/22 10:42:02;;;;;;;6.67;2.77;;;;;;;-144.99;40.65;52154.59;5067208;28;20462;-76
2021/03/22 10:44:33;;;;;;;5.30;1.90;;;;;;;-144.99;40.50;52093.44;5072503;28;20274;-79
2021/03/22 10:47:05;;;;;;;5.60;2.67;;;;;;;-144.99;38.88;52117.91;5071233;28;20224;-77
2021/03/22 10:49:31;;;;;;;6.03;2.30;;;;;;;-144.99;38.55;52093.44;5073348;28;20224;-73
2021/03/22 10:52:01;;;;;;;2.40;1.30;;;;;;;-144.99;38.96;52172.94;5069089;28;20203;-76
2021/03/22 10:54:41;;;;;;;6.37;2.93;;;;;;;-144.99;39.56;52140.31;5070111;28;20239;-75
2021/03/22 10:57:16;;;;;;;7.30;3.73;;;;;;;-144.99;39.15;52207.59;5068527;28;20265;-76
2021/03/22 10:59:45;;;;;;;6.10;1.90;;;;;;;-144.99;39.46;52081.22;5070041;28;20299;-75
2021/03/22 11:02:23;;;;;;;7.07;2.60;;;;;;;-144.99;38.42;52077.16;5069202;28;20200;-76
2021/03/22 11:04:49;;;;;;;4.93;2.13;;;;;;;-144.99;38.60;52097.53;5066875;28;20196;-75
2021/03/22 11:07:19;;;;;;;4.70;1.83;;;;;;;-144.99;38.86;52085.31;5069279;28;20309;-76
2021/03/22 11:09:54;;;;;;;8.00;2.10;;;;;;;-144.99;38.46;52069.00;5070764;28;20574;-73
2021/03/22 11:12:22;;;;;;;7.83;2.33;;;;;;;-144.99;37.78;52089.38;5065493;28;20204;-73
2021/03/22 11:14:48;;;;;;;6.63;1.90;;;;;;;-144.99;36.87;52107.72;5069729;28;20197;-75
2021/03/22 11:17:16;;;;;;;5.13;2.07;;;;;;;-144.99;36.24;52211.66;5068691;28;20571;-74
2021/03/22 11:19:45;;;;;;;7.13;2.33;;;;;;;-144.99;37.30;52211.66;5071686;28;20666;-73
2021/03/22 11:22:25;;;;;;;5.07;2.07;;;;;;;-144.99;39.12;52276.88;5068568;28;20651;-72
2021/03/22 11:24:54;;;;;;;8.40;2.40;;;;;;;-144.99;40.54;52289.13;5068764;28;20204;-76
2021/03/22 11:27:22;;;;;;;6.00;1.97;;;;;;;-144.99;41.27;52309.50;5062195;28;20716;-73
2021/03/22 11:29:58;;;;;;;9.47;8.80;;;;;;;-144.99;42.04;52287.06;5065623;28;20221;-75
2021/03/22 11:32:27;;;;;;;224.07;207.43;;;;;;;-144.99;43.37;52329.88;5065143;28;20199;-77
2021/03/22 11:34:55;;;;;;;60.60;57.93;;;;;;;-144.99;45.25;52338.03;5066157;28;20697;-76